<?xml version="1.0" encoding="UTF-8" standalone="no" ?>
<gpx xmlns="http://www.topografix.com/GPX/1/1" xmlns:xsi="http://www.w3.org/2001/XMLSchema-instance" xsi:schemaLocation="http://www.topografix.com/GPX/1/1 http://www.topografix.com/GPX/1/1/gpx.xsd" version="1.1" creator="VisuGPX - https://www.visugpx.com">
  <metadata>
    <name>sejour gov alsace</name>
  </metadata>
  <wpt lat="48.06424" lon="7.02221">
    <ele>1132</ele>
    <name><![CDATA[Col de la Schlucht]]></name>
    <desc><![CDATA[Parking]]></desc>
    <cmt><![CDATA[Parking]]></cmt>
  </wpt>
  <wpt lat="48.04158" lon="7.29947">
    <ele>223</ele>
    <name><![CDATA[Eguisheim]]></name>
  </wpt>
  <wpt lat="48.1793" lon="7.31018">
    <ele>275</ele>
    <name><![CDATA[Hunawihr]]></name>
  </wpt>
  <wpt lat="48.13923" lon="7.25933">
    <ele>251</ele>
    <name><![CDATA[Kaysersberg]]></name>
  </wpt>
  <wpt lat="48.14587" lon="7.25086">
    <ele>290</ele>
    <name><![CDATA[Kaysersberg-CCAS]]></name>
    <desc><![CDATA[3 Rue Rene le Guen]]></desc>
    <cmt><![CDATA[3 Rue Rene le Guen]]></cmt>
  </wpt>
  <wpt lat="48.14668" lon="7.25549">
    <ele>261</ele>
    <name><![CDATA[Kaysersberg-Salle de Sport]]></name>
  </wpt>
  <wpt lat="48.11261" lon="7.10019">
    <ele>958</ele>
    <name><![CDATA[Lac Noir]]></name>
  </wpt>
  <wpt lat="48.17" lon="7.12576">
    <ele>667</ele>
    <name><![CDATA[Le Bonhomme]]></name>
  </wpt>
  <wpt lat="48.05292" lon="6.9482">
    <ele>918</ele>
    <name><![CDATA[Lispach]]></name>
  </wpt>
  <wpt lat="48.16758" lon="7.29424">
    <ele>321</ele>
    <name><![CDATA[Riquewihr]]></name>
  </wpt>
  <wpt lat="48.23274" lon="7.36606">
    <ele>254</ele>
    <name><![CDATA[St-Hippolyte]]></name>
  </wpt>
  <wpt lat="48.22694" lon="7.30439">
    <ele>466</ele>
    <name><![CDATA[Thannenkirch]]></name>
  </wpt>
  <trk>
    <name><![CDATA[02-Eguisheim- Château du Hagueneck-Trois Châteaux au-dessus de Husseren (12,5 Km & 450m)]]></name>
    <trkseg>
      <trkpt lat="48.04344" lon="7.30428">
        <ele>211</ele>
        <time>2021-04-26T14:17:20Z</time>
      </trkpt>
      <trkpt lat="48.04354" lon="7.30383">
        <ele>211</ele>
        <time>2021-04-26T14:17:30Z</time>
      </trkpt>
      <trkpt lat="48.04364" lon="7.30337">
        <ele>212</ele>
        <time>2021-04-26T14:17:40Z</time>
      </trkpt>
      <trkpt lat="48.04373" lon="7.30319">
        <ele>213</ele>
        <time>2021-04-26T14:17:45Z</time>
      </trkpt>
      <trkpt lat="48.04384" lon="7.3029">
        <ele>214</ele>
        <time>2021-04-26T14:17:50Z</time>
      </trkpt>
      <trkpt lat="48.04394" lon="7.30259">
        <ele>215</ele>
        <time>2021-04-26T14:17:55Z</time>
      </trkpt>
      <trkpt lat="48.04403" lon="7.30224">
        <ele>216</ele>
        <time>2021-04-26T14:18:00Z</time>
      </trkpt>
      <trkpt lat="48.04409" lon="7.30193">
        <ele>217</ele>
        <time>2021-04-26T14:18:05Z</time>
      </trkpt>
      <trkpt lat="48.04415" lon="7.30158">
        <ele>217</ele>
        <time>2021-04-26T14:18:10Z</time>
      </trkpt>
      <trkpt lat="48.0442" lon="7.30127">
        <ele>219</ele>
        <time>2021-04-26T14:18:15Z</time>
      </trkpt>
      <trkpt lat="48.04426" lon="7.30094">
        <ele>221</ele>
        <time>2021-04-26T14:18:20Z</time>
      </trkpt>
      <trkpt lat="48.04432" lon="7.30055">
        <ele>222</ele>
        <time>2021-04-26T14:18:25Z</time>
      </trkpt>
      <trkpt lat="48.04436" lon="7.30024">
        <ele>224</ele>
        <time>2021-04-26T14:18:30Z</time>
      </trkpt>
      <trkpt lat="48.04441" lon="7.2999">
        <ele>225</ele>
        <time>2021-04-26T14:18:35Z</time>
      </trkpt>
      <trkpt lat="48.04446" lon="7.29951">
        <ele>228</ele>
        <time>2021-04-26T14:18:40Z</time>
      </trkpt>
      <trkpt lat="48.04446" lon="7.29936">
        <ele>229</ele>
        <time>2021-04-26T14:18:45Z</time>
      </trkpt>
      <trkpt lat="48.04459" lon="7.29935">
        <ele>230</ele>
        <time>2021-04-26T14:18:50Z</time>
      </trkpt>
      <trkpt lat="48.04485" lon="7.29932">
        <ele>233</ele>
        <time>2021-04-26T14:18:55Z</time>
      </trkpt>
      <trkpt lat="48.04498" lon="7.2991">
        <ele>235</ele>
        <time>2021-04-26T14:19:00Z</time>
      </trkpt>
      <trkpt lat="48.04502" lon="7.29879">
        <ele>238</ele>
        <time>2021-04-26T14:19:05Z</time>
      </trkpt>
      <trkpt lat="48.04513" lon="7.29842">
        <ele>241</ele>
        <time>2021-04-26T14:19:10Z</time>
      </trkpt>
      <trkpt lat="48.04521" lon="7.29811">
        <ele>243</ele>
        <time>2021-04-26T14:19:15Z</time>
      </trkpt>
      <trkpt lat="48.04531" lon="7.29781">
        <ele>245</ele>
        <time>2021-04-26T14:19:20Z</time>
      </trkpt>
      <trkpt lat="48.04549" lon="7.29757">
        <ele>248</ele>
        <time>2021-04-26T14:19:25Z</time>
      </trkpt>
      <trkpt lat="48.04567" lon="7.29737">
        <ele>250</ele>
        <time>2021-04-26T14:19:30Z</time>
      </trkpt>
      <trkpt lat="48.04576" lon="7.29705">
        <ele>253</ele>
        <time>2021-04-26T14:19:35Z</time>
      </trkpt>
      <trkpt lat="48.04578" lon="7.29672">
        <ele>255</ele>
        <time>2021-04-26T14:19:40Z</time>
      </trkpt>
      <trkpt lat="48.04583" lon="7.29636">
        <ele>257</ele>
        <time>2021-04-26T14:19:45Z</time>
      </trkpt>
      <trkpt lat="48.04587" lon="7.296">
        <ele>259</ele>
        <time>2021-04-26T14:19:50Z</time>
      </trkpt>
      <trkpt lat="48.04591" lon="7.29571">
        <ele>260</ele>
        <time>2021-04-26T14:19:55Z</time>
      </trkpt>
      <trkpt lat="48.046" lon="7.29535">
        <ele>262</ele>
        <time>2021-04-26T14:20:00Z</time>
      </trkpt>
      <trkpt lat="48.04613" lon="7.29507">
        <ele>265</ele>
        <time>2021-04-26T14:20:05Z</time>
      </trkpt>
      <trkpt lat="48.04639" lon="7.29502">
        <ele>268</ele>
        <time>2021-04-26T14:20:10Z</time>
      </trkpt>
      <trkpt lat="48.04662" lon="7.29504">
        <ele>271</ele>
        <time>2021-04-26T14:20:15Z</time>
      </trkpt>
      <trkpt lat="48.04686" lon="7.29507">
        <ele>271</ele>
        <time>2021-04-26T14:20:20Z</time>
      </trkpt>
      <trkpt lat="48.04696" lon="7.29482">
        <ele>273</ele>
        <time>2021-04-26T14:20:25Z</time>
      </trkpt>
      <trkpt lat="48.047" lon="7.29449">
        <ele>274</ele>
        <time>2021-04-26T14:20:30Z</time>
      </trkpt>
      <trkpt lat="48.04704" lon="7.29412">
        <ele>276</ele>
        <time>2021-04-26T14:20:35Z</time>
      </trkpt>
      <trkpt lat="48.04707" lon="7.29379">
        <ele>278</ele>
        <time>2021-04-26T14:20:40Z</time>
      </trkpt>
      <trkpt lat="48.0471" lon="7.2936">
        <ele>279</ele>
        <time>2021-04-26T14:20:45Z</time>
      </trkpt>
      <trkpt lat="48.04718" lon="7.29342">
        <ele>280</ele>
        <time>2021-04-26T14:20:50Z</time>
      </trkpt>
      <trkpt lat="48.04735" lon="7.29322">
        <ele>281</ele>
        <time>2021-04-26T14:20:55Z</time>
      </trkpt>
      <trkpt lat="48.04751" lon="7.29298">
        <ele>283</ele>
        <time>2021-04-26T14:21:00Z</time>
      </trkpt>
      <trkpt lat="48.0476" lon="7.29272">
        <ele>285</ele>
        <time>2021-04-26T14:21:05Z</time>
      </trkpt>
      <trkpt lat="48.04765" lon="7.29238">
        <ele>287</ele>
        <time>2021-04-26T14:21:10Z</time>
      </trkpt>
      <trkpt lat="48.04778" lon="7.29207">
        <ele>289</ele>
        <time>2021-04-26T14:21:15Z</time>
      </trkpt>
      <trkpt lat="48.04784" lon="7.29183">
        <ele>290</ele>
        <time>2021-04-26T14:21:20Z</time>
      </trkpt>
      <trkpt lat="48.04771" lon="7.29153">
        <ele>293</ele>
        <time>2021-04-26T14:21:25Z</time>
      </trkpt>
      <trkpt lat="48.04763" lon="7.29117">
        <ele>295</ele>
        <time>2021-04-26T14:21:30Z</time>
      </trkpt>
      <trkpt lat="48.04765" lon="7.29093">
        <ele>296</ele>
        <time>2021-04-26T14:21:35Z</time>
      </trkpt>
      <trkpt lat="48.04773" lon="7.29077">
        <ele>297</ele>
        <time>2021-04-26T14:21:40Z</time>
      </trkpt>
      <trkpt lat="48.04784" lon="7.29049">
        <ele>300</ele>
        <time>2021-04-26T14:21:45Z</time>
      </trkpt>
      <trkpt lat="48.04789" lon="7.29019">
        <ele>304</ele>
        <time>2021-04-26T14:21:50Z</time>
      </trkpt>
      <trkpt lat="48.04789" lon="7.28985">
        <ele>307</ele>
        <time>2021-04-26T14:21:55Z</time>
      </trkpt>
      <trkpt lat="48.0479" lon="7.28966">
        <ele>309</ele>
        <time>2021-04-26T14:22:00Z</time>
      </trkpt>
      <trkpt lat="48.04795" lon="7.28944">
        <ele>311</ele>
        <time>2021-04-26T14:22:05Z</time>
      </trkpt>
      <trkpt lat="48.04807" lon="7.28915">
        <ele>315</ele>
        <time>2021-04-26T14:22:10Z</time>
      </trkpt>
      <trkpt lat="48.0482" lon="7.28883">
        <ele>318</ele>
        <time>2021-04-26T14:22:15Z</time>
      </trkpt>
      <trkpt lat="48.04833" lon="7.28854">
        <ele>321</ele>
        <time>2021-04-26T14:22:20Z</time>
      </trkpt>
      <trkpt lat="48.04843" lon="7.28829">
        <ele>324</ele>
        <time>2021-04-26T14:22:25Z</time>
      </trkpt>
      <trkpt lat="48.04842" lon="7.28798">
        <ele>327</ele>
        <time>2021-04-26T14:22:30Z</time>
      </trkpt>
      <trkpt lat="48.04839" lon="7.28767">
        <ele>329</ele>
        <time>2021-04-26T14:22:35Z</time>
      </trkpt>
      <trkpt lat="48.04836" lon="7.28729">
        <ele>332</ele>
        <time>2021-04-26T14:22:40Z</time>
      </trkpt>
      <trkpt lat="48.04836" lon="7.28694">
        <ele>335</ele>
        <time>2021-04-26T14:22:45Z</time>
      </trkpt>
      <trkpt lat="48.04836" lon="7.2866">
        <ele>337</ele>
        <time>2021-04-26T14:22:50Z</time>
      </trkpt>
      <trkpt lat="48.04838" lon="7.28625">
        <ele>337</ele>
        <time>2021-04-26T14:22:55Z</time>
      </trkpt>
      <trkpt lat="48.0484" lon="7.2859">
        <ele>336</ele>
        <time>2021-04-26T14:23:00Z</time>
      </trkpt>
      <trkpt lat="48.04842" lon="7.28557">
        <ele>335</ele>
        <time>2021-04-26T14:23:05Z</time>
      </trkpt>
      <trkpt lat="48.04856" lon="7.28546">
        <ele>335</ele>
        <time>2021-04-26T14:23:10Z</time>
      </trkpt>
      <trkpt lat="48.0488" lon="7.28547">
        <ele>336</ele>
        <time>2021-04-26T14:23:15Z</time>
      </trkpt>
      <trkpt lat="48.04902" lon="7.28545">
        <ele>337</ele>
        <time>2021-04-26T14:23:20Z</time>
      </trkpt>
      <trkpt lat="48.04927" lon="7.28539">
        <ele>337</ele>
        <time>2021-04-26T14:23:25Z</time>
      </trkpt>
      <trkpt lat="48.04949" lon="7.2854">
        <ele>336</ele>
        <time>2021-04-26T14:23:30Z</time>
      </trkpt>
      <trkpt lat="48.04972" lon="7.28544">
        <ele>335</ele>
        <time>2021-04-26T14:23:35Z</time>
      </trkpt>
      <trkpt lat="48.04994" lon="7.28548">
        <ele>334</ele>
        <time>2021-04-26T14:23:40Z</time>
      </trkpt>
      <trkpt lat="48.05006" lon="7.28525">
        <ele>334</ele>
        <time>2021-04-26T14:23:45Z</time>
      </trkpt>
      <trkpt lat="48.05005" lon="7.28511">
        <ele>335</ele>
        <time>2021-04-26T14:23:50Z</time>
      </trkpt>
      <trkpt lat="48.05021" lon="7.28517">
        <ele>333</ele>
        <time>2021-04-26T14:23:55Z</time>
      </trkpt>
      <trkpt lat="48.05036" lon="7.28522">
        <ele>332</ele>
        <time>2021-04-26T14:24:00Z</time>
      </trkpt>
      <trkpt lat="48.05059" lon="7.28513">
        <ele>330</ele>
        <time>2021-04-26T14:24:05Z</time>
      </trkpt>
      <trkpt lat="48.05081" lon="7.28504">
        <ele>329</ele>
        <time>2021-04-26T14:24:10Z</time>
      </trkpt>
      <trkpt lat="48.05106" lon="7.285">
        <ele>325</ele>
        <time>2021-04-26T14:24:15Z</time>
      </trkpt>
      <trkpt lat="48.05125" lon="7.28512">
        <ele>321</ele>
        <time>2021-04-26T14:24:20Z</time>
      </trkpt>
      <trkpt lat="48.05152" lon="7.28502">
        <ele>317</ele>
        <time>2021-04-26T14:24:25Z</time>
      </trkpt>
      <trkpt lat="48.05172" lon="7.28494">
        <ele>314</ele>
        <time>2021-04-26T14:24:30Z</time>
      </trkpt>
      <trkpt lat="48.05188" lon="7.28466">
        <ele>313</ele>
        <time>2021-04-26T14:24:35Z</time>
      </trkpt>
      <trkpt lat="48.0521" lon="7.28447">
        <ele>311</ele>
        <time>2021-04-26T14:24:40Z</time>
      </trkpt>
      <trkpt lat="48.05231" lon="7.28437">
        <ele>309</ele>
        <time>2021-04-26T14:24:45Z</time>
      </trkpt>
      <trkpt lat="48.05253" lon="7.28429">
        <ele>306</ele>
        <time>2021-04-26T14:24:50Z</time>
      </trkpt>
      <trkpt lat="48.05275" lon="7.28432">
        <ele>305</ele>
        <time>2021-04-26T14:24:55Z</time>
      </trkpt>
      <trkpt lat="48.05293" lon="7.28452">
        <ele>301</ele>
        <time>2021-04-26T14:25:00Z</time>
      </trkpt>
      <trkpt lat="48.05304" lon="7.28458">
        <ele>300</ele>
        <time>2021-04-26T14:25:05Z</time>
      </trkpt>
      <trkpt lat="48.05303" lon="7.28436">
        <ele>303</ele>
        <time>2021-04-26T14:25:10Z</time>
      </trkpt>
      <trkpt lat="48.05304" lon="7.28399">
        <ele>307</ele>
        <time>2021-04-26T14:25:15Z</time>
      </trkpt>
      <trkpt lat="48.05304" lon="7.28369">
        <ele>311</ele>
        <time>2021-04-26T14:25:20Z</time>
      </trkpt>
      <trkpt lat="48.05325" lon="7.28341">
        <ele>313</ele>
        <time>2021-04-26T14:25:25Z</time>
      </trkpt>
      <trkpt lat="48.05341" lon="7.2832">
        <ele>317</ele>
        <time>2021-04-26T14:25:30Z</time>
      </trkpt>
      <trkpt lat="48.05346" lon="7.28295">
        <ele>322</ele>
        <time>2021-04-26T14:25:35Z</time>
      </trkpt>
      <trkpt lat="48.05328" lon="7.2828">
        <ele>323</ele>
        <time>2021-04-26T14:25:40Z</time>
      </trkpt>
      <trkpt lat="48.05303" lon="7.28265">
        <ele>325</ele>
        <time>2021-04-26T14:25:45Z</time>
      </trkpt>
      <trkpt lat="48.05293" lon="7.28261">
        <ele>325</ele>
        <time>2021-04-26T14:25:50Z</time>
      </trkpt>
      <trkpt lat="48.05281" lon="7.28248">
        <ele>326</ele>
        <time>2021-04-26T14:25:55Z</time>
      </trkpt>
      <trkpt lat="48.05266" lon="7.28216">
        <ele>330</ele>
        <time>2021-04-26T14:26:00Z</time>
      </trkpt>
      <trkpt lat="48.05267" lon="7.28182">
        <ele>336</ele>
        <time>2021-04-26T14:26:05Z</time>
      </trkpt>
      <trkpt lat="48.05261" lon="7.2815">
        <ele>341</ele>
        <time>2021-04-26T14:26:10Z</time>
      </trkpt>
      <trkpt lat="48.05251" lon="7.28117">
        <ele>347</ele>
        <time>2021-04-26T14:26:15Z</time>
      </trkpt>
      <trkpt lat="48.05247" lon="7.28085">
        <ele>353</ele>
        <time>2021-04-26T14:26:20Z</time>
      </trkpt>
      <trkpt lat="48.05236" lon="7.28055">
        <ele>357</ele>
        <time>2021-04-26T14:26:25Z</time>
      </trkpt>
      <trkpt lat="48.05225" lon="7.28029">
        <ele>360</ele>
        <time>2021-04-26T14:26:30Z</time>
      </trkpt>
      <trkpt lat="48.05236" lon="7.2801">
        <ele>365</ele>
        <time>2021-04-26T14:26:35Z</time>
      </trkpt>
      <trkpt lat="48.0525" lon="7.27995">
        <ele>370</ele>
        <time>2021-04-26T14:26:40Z</time>
      </trkpt>
      <trkpt lat="48.05247" lon="7.27979">
        <ele>371</ele>
        <time>2021-04-26T14:26:45Z</time>
      </trkpt>
      <trkpt lat="48.05237" lon="7.27951">
        <ele>373</ele>
        <time>2021-04-26T14:26:50Z</time>
      </trkpt>
      <trkpt lat="48.05232" lon="7.27915">
        <ele>377</ele>
        <time>2021-04-26T14:26:55Z</time>
      </trkpt>
      <trkpt lat="48.05232" lon="7.27877">
        <ele>381</ele>
        <time>2021-04-26T14:27:00Z</time>
      </trkpt>
      <trkpt lat="48.05231" lon="7.27844">
        <ele>383</ele>
        <time>2021-04-26T14:27:05Z</time>
      </trkpt>
      <trkpt lat="48.05232" lon="7.2781">
        <ele>386</ele>
        <time>2021-04-26T14:27:10Z</time>
      </trkpt>
      <trkpt lat="48.05236" lon="7.27776">
        <ele>389</ele>
        <time>2021-04-26T14:27:15Z</time>
      </trkpt>
      <trkpt lat="48.05236" lon="7.27743">
        <ele>393</ele>
        <time>2021-04-26T14:27:20Z</time>
      </trkpt>
      <trkpt lat="48.05219" lon="7.27702">
        <ele>401</ele>
        <time>2021-04-26T14:27:25Z</time>
      </trkpt>
      <trkpt lat="48.05218" lon="7.27679">
        <ele>404</ele>
        <time>2021-04-26T14:27:30Z</time>
      </trkpt>
      <trkpt lat="48.05233" lon="7.27672">
        <ele>402</ele>
        <time>2021-04-26T14:27:35Z</time>
      </trkpt>
      <trkpt lat="48.05244" lon="7.27686">
        <ele>398</ele>
        <time>2021-04-26T14:27:40Z</time>
      </trkpt>
      <trkpt lat="48.05255" lon="7.27722">
        <ele>395</ele>
        <time>2021-04-26T14:27:45Z</time>
      </trkpt>
      <trkpt lat="48.05264" lon="7.27758">
        <ele>395</ele>
        <time>2021-04-26T14:27:50Z</time>
      </trkpt>
      <trkpt lat="48.05273" lon="7.27791">
        <ele>395</ele>
        <time>2021-04-26T14:27:55Z</time>
      </trkpt>
      <trkpt lat="48.05281" lon="7.27824">
        <ele>394</ele>
        <time>2021-04-26T14:28:00Z</time>
      </trkpt>
      <trkpt lat="48.05286" lon="7.27858">
        <ele>392</ele>
        <time>2021-04-26T14:28:05Z</time>
      </trkpt>
      <trkpt lat="48.05296" lon="7.2789">
        <ele>392</ele>
        <time>2021-04-26T14:28:10Z</time>
      </trkpt>
      <trkpt lat="48.05306" lon="7.27898">
        <ele>394</ele>
        <time>2021-04-26T14:28:15Z</time>
      </trkpt>
      <trkpt lat="48.05321" lon="7.27897">
        <ele>398</ele>
        <time>2021-04-26T14:28:20Z</time>
      </trkpt>
      <trkpt lat="48.05316" lon="7.27866">
        <ele>400</ele>
        <time>2021-04-26T14:28:25Z</time>
      </trkpt>
      <trkpt lat="48.05298" lon="7.2783">
        <ele>399</ele>
        <time>2021-04-26T14:28:30Z</time>
      </trkpt>
      <trkpt lat="48.05291" lon="7.27797">
        <ele>400</ele>
        <time>2021-04-26T14:28:35Z</time>
      </trkpt>
      <trkpt lat="48.05281" lon="7.27761">
        <ele>400</ele>
        <time>2021-04-26T14:28:40Z</time>
      </trkpt>
      <trkpt lat="48.05272" lon="7.2773">
        <ele>401</ele>
        <time>2021-04-26T14:28:45Z</time>
      </trkpt>
      <trkpt lat="48.05266" lon="7.27695">
        <ele>402</ele>
        <time>2021-04-26T14:28:50Z</time>
      </trkpt>
      <trkpt lat="48.0526" lon="7.27661">
        <ele>404</ele>
        <time>2021-04-26T14:28:55Z</time>
      </trkpt>
      <trkpt lat="48.05258" lon="7.2764">
        <ele>406</ele>
        <time>2021-04-26T14:29:00Z</time>
      </trkpt>
      <trkpt lat="48.05265" lon="7.27612">
        <ele>413</ele>
        <time>2021-04-26T14:29:05Z</time>
      </trkpt>
      <trkpt lat="48.05256" lon="7.27586">
        <ele>414</ele>
        <time>2021-04-26T14:29:10Z</time>
      </trkpt>
      <trkpt lat="48.0524" lon="7.27558">
        <ele>420</ele>
        <time>2021-04-26T14:29:15Z</time>
      </trkpt>
      <trkpt lat="48.05224" lon="7.2754">
        <ele>428</ele>
        <time>2021-04-26T14:29:20Z</time>
      </trkpt>
      <trkpt lat="48.05214" lon="7.27534">
        <ele>431</ele>
        <time>2021-04-26T14:29:25Z</time>
      </trkpt>
      <trkpt lat="48.05233" lon="7.27491">
        <ele>438</ele>
        <time>2021-04-26T14:29:30Z</time>
      </trkpt>
      <trkpt lat="48.05236" lon="7.27516">
        <ele>432</ele>
        <time>2021-04-26T14:29:35Z</time>
      </trkpt>
      <trkpt lat="48.05235" lon="7.27542">
        <ele>425</ele>
        <time>2021-04-26T14:29:40Z</time>
      </trkpt>
      <trkpt lat="48.05256" lon="7.27571">
        <ele>417</ele>
        <time>2021-04-26T14:29:45Z</time>
      </trkpt>
      <trkpt lat="48.05266" lon="7.27601">
        <ele>415</ele>
        <time>2021-04-26T14:29:50Z</time>
      </trkpt>
      <trkpt lat="48.05279" lon="7.27617">
        <ele>417</ele>
        <time>2021-04-26T14:29:55Z</time>
      </trkpt>
      <trkpt lat="48.05287" lon="7.27665">
        <ele>414</ele>
        <time>2021-04-26T14:30:00Z</time>
      </trkpt>
      <trkpt lat="48.05302" lon="7.27656">
        <ele>421</ele>
        <time>2021-04-26T14:30:05Z</time>
      </trkpt>
      <trkpt lat="48.053" lon="7.27616">
        <ele>425</ele>
        <time>2021-04-26T14:30:10Z</time>
      </trkpt>
      <trkpt lat="48.05299" lon="7.27591">
        <ele>428</ele>
        <time>2021-04-26T14:30:15Z</time>
      </trkpt>
      <trkpt lat="48.05299" lon="7.27571">
        <ele>431</ele>
        <time>2021-04-26T14:30:20Z</time>
      </trkpt>
      <trkpt lat="48.05298" lon="7.27548">
        <ele>435</ele>
        <time>2021-04-26T14:30:25Z</time>
      </trkpt>
      <trkpt lat="48.05293" lon="7.27519">
        <ele>439</ele>
        <time>2021-04-26T14:30:30Z</time>
      </trkpt>
      <trkpt lat="48.05288" lon="7.27489">
        <ele>444</ele>
        <time>2021-04-26T14:30:35Z</time>
      </trkpt>
      <trkpt lat="48.05298" lon="7.27466">
        <ele>450</ele>
        <time>2021-04-26T14:30:40Z</time>
      </trkpt>
      <trkpt lat="48.05318" lon="7.27489">
        <ele>450</ele>
        <time>2021-04-26T14:30:45Z</time>
      </trkpt>
      <trkpt lat="48.05321" lon="7.27466">
        <ele>454</ele>
        <time>2021-04-26T14:30:50Z</time>
      </trkpt>
      <trkpt lat="48.05313" lon="7.27447">
        <ele>456</ele>
        <time>2021-04-26T14:30:55Z</time>
      </trkpt>
      <trkpt lat="48.05304" lon="7.27427">
        <ele>457</ele>
        <time>2021-04-26T14:31:00Z</time>
      </trkpt>
      <trkpt lat="48.0529" lon="7.27396">
        <ele>460</ele>
        <time>2021-04-26T14:31:05Z</time>
      </trkpt>
      <trkpt lat="48.05277" lon="7.27367">
        <ele>462</ele>
        <time>2021-04-26T14:31:10Z</time>
      </trkpt>
      <trkpt lat="48.05264" lon="7.27337">
        <ele>464</ele>
        <time>2021-04-26T14:31:15Z</time>
      </trkpt>
      <trkpt lat="48.05254" lon="7.27313">
        <ele>467</ele>
        <time>2021-04-26T14:31:20Z</time>
      </trkpt>
      <trkpt lat="48.05243" lon="7.27308">
        <ele>470</ele>
        <time>2021-04-26T14:31:25Z</time>
      </trkpt>
      <trkpt lat="48.05229" lon="7.27334">
        <ele>468</ele>
        <time>2021-04-26T14:31:30Z</time>
      </trkpt>
      <trkpt lat="48.05207" lon="7.27378">
        <ele>466</ele>
        <time>2021-04-26T14:31:35Z</time>
      </trkpt>
      <trkpt lat="48.0519" lon="7.27412">
        <ele>463</ele>
        <time>2021-04-26T14:31:40Z</time>
      </trkpt>
      <trkpt lat="48.05181" lon="7.27402">
        <ele>467</ele>
        <time>2021-04-26T14:31:45Z</time>
      </trkpt>
      <trkpt lat="48.05182" lon="7.27377">
        <ele>473</ele>
        <time>2021-04-26T14:31:50Z</time>
      </trkpt>
      <trkpt lat="48.05188" lon="7.27341">
        <ele>479</ele>
        <time>2021-04-26T14:31:55Z</time>
      </trkpt>
      <trkpt lat="48.05199" lon="7.27317">
        <ele>482</ele>
        <time>2021-04-26T14:32:00Z</time>
      </trkpt>
      <trkpt lat="48.05214" lon="7.27284">
        <ele>485</ele>
        <time>2021-04-26T14:32:05Z</time>
      </trkpt>
      <trkpt lat="48.05237" lon="7.27256">
        <ele>484</ele>
        <time>2021-04-26T14:32:10Z</time>
      </trkpt>
      <trkpt lat="48.05249" lon="7.27234">
        <ele>487</ele>
        <time>2021-04-26T14:32:15Z</time>
      </trkpt>
      <trkpt lat="48.05244" lon="7.2721">
        <ele>496</ele>
        <time>2021-04-26T14:32:20Z</time>
      </trkpt>
      <trkpt lat="48.05225" lon="7.27203">
        <ele>503</ele>
        <time>2021-04-26T14:32:25Z</time>
      </trkpt>
      <trkpt lat="48.05215" lon="7.27214">
        <ele>503</ele>
        <time>2021-04-26T14:32:30Z</time>
      </trkpt>
      <trkpt lat="48.05198" lon="7.27236">
        <ele>502</ele>
        <time>2021-04-26T14:32:35Z</time>
      </trkpt>
      <trkpt lat="48.05187" lon="7.27274">
        <ele>496</ele>
        <time>2021-04-26T14:32:40Z</time>
      </trkpt>
      <trkpt lat="48.05172" lon="7.27305">
        <ele>493</ele>
        <time>2021-04-26T14:32:45Z</time>
      </trkpt>
      <trkpt lat="48.05155" lon="7.27332">
        <ele>490</ele>
        <time>2021-04-26T14:32:50Z</time>
      </trkpt>
      <trkpt lat="48.0513" lon="7.27346">
        <ele>492</ele>
        <time>2021-04-26T14:32:55Z</time>
      </trkpt>
      <trkpt lat="48.05105" lon="7.27349">
        <ele>496</ele>
        <time>2021-04-26T14:33:00Z</time>
      </trkpt>
      <trkpt lat="48.05086" lon="7.27345">
        <ele>500</ele>
        <time>2021-04-26T14:33:05Z</time>
      </trkpt>
      <trkpt lat="48.05062" lon="7.27337">
        <ele>507</ele>
        <time>2021-04-26T14:33:10Z</time>
      </trkpt>
      <trkpt lat="48.05086" lon="7.27331">
        <ele>503</ele>
        <time>2021-04-26T14:33:15Z</time>
      </trkpt>
      <trkpt lat="48.051" lon="7.27329">
        <ele>501</ele>
        <time>2021-04-26T14:33:20Z</time>
      </trkpt>
      <trkpt lat="48.05124" lon="7.27324">
        <ele>498</ele>
        <time>2021-04-26T14:33:25Z</time>
      </trkpt>
      <trkpt lat="48.05143" lon="7.27287">
        <ele>505</ele>
        <time>2021-04-26T14:33:30Z</time>
      </trkpt>
      <trkpt lat="48.05155" lon="7.27252">
        <ele>511</ele>
        <time>2021-04-26T14:33:35Z</time>
      </trkpt>
      <trkpt lat="48.05166" lon="7.27213">
        <ele>516</ele>
        <time>2021-04-26T14:33:40Z</time>
      </trkpt>
      <trkpt lat="48.05174" lon="7.27198">
        <ele>517</ele>
        <time>2021-04-26T14:33:45Z</time>
      </trkpt>
      <trkpt lat="48.05181" lon="7.27183">
        <ele>518</ele>
        <time>2021-04-26T14:33:50Z</time>
      </trkpt>
      <trkpt lat="48.0519" lon="7.27162">
        <ele>521</ele>
        <time>2021-04-26T14:33:55Z</time>
      </trkpt>
      <trkpt lat="48.05203" lon="7.27136">
        <ele>525</ele>
        <time>2021-04-26T14:34:00Z</time>
      </trkpt>
      <trkpt lat="48.05214" lon="7.27108">
        <ele>531</ele>
        <time>2021-04-26T14:34:05Z</time>
      </trkpt>
      <trkpt lat="48.05195" lon="7.27101">
        <ele>535</ele>
        <time>2021-04-26T14:34:10Z</time>
      </trkpt>
      <trkpt lat="48.05177" lon="7.27112">
        <ele>534</ele>
        <time>2021-04-26T14:34:15Z</time>
      </trkpt>
      <trkpt lat="48.05162" lon="7.2714">
        <ele>531</ele>
        <time>2021-04-26T14:34:20Z</time>
      </trkpt>
      <trkpt lat="48.05148" lon="7.27175">
        <ele>527</ele>
        <time>2021-04-26T14:34:25Z</time>
      </trkpt>
      <trkpt lat="48.05134" lon="7.27208">
        <ele>525</ele>
        <time>2021-04-26T14:34:30Z</time>
      </trkpt>
      <trkpt lat="48.05117" lon="7.2723">
        <ele>524</ele>
        <time>2021-04-26T14:34:35Z</time>
      </trkpt>
      <trkpt lat="48.05095" lon="7.27246">
        <ele>526</ele>
        <time>2021-04-26T14:34:40Z</time>
      </trkpt>
      <trkpt lat="48.05077" lon="7.27258">
        <ele>527</ele>
        <time>2021-04-26T14:34:45Z</time>
      </trkpt>
      <trkpt lat="48.05046" lon="7.27254">
        <ele>532</ele>
        <time>2021-04-26T14:34:50Z</time>
      </trkpt>
      <trkpt lat="48.05015" lon="7.27243">
        <ele>538</ele>
        <time>2021-04-26T14:34:55Z</time>
      </trkpt>
      <trkpt lat="48.04994" lon="7.27237">
        <ele>542</ele>
        <time>2021-04-26T14:35:00Z</time>
      </trkpt>
      <trkpt lat="48.05007" lon="7.27213">
        <ele>546</ele>
        <time>2021-04-26T14:35:05Z</time>
      </trkpt>
      <trkpt lat="48.05025" lon="7.27213">
        <ele>543</ele>
        <time>2021-04-26T14:35:10Z</time>
      </trkpt>
      <trkpt lat="48.05047" lon="7.27206">
        <ele>542</ele>
        <time>2021-04-26T14:35:15Z</time>
      </trkpt>
      <trkpt lat="48.05073" lon="7.27198">
        <ele>541</ele>
        <time>2021-04-26T14:35:20Z</time>
      </trkpt>
      <trkpt lat="48.05089" lon="7.27164">
        <ele>545</ele>
        <time>2021-04-26T14:35:25Z</time>
      </trkpt>
      <trkpt lat="48.05103" lon="7.27133">
        <ele>548</ele>
        <time>2021-04-26T14:35:30Z</time>
      </trkpt>
      <trkpt lat="48.05118" lon="7.27107">
        <ele>550</ele>
        <time>2021-04-26T14:35:35Z</time>
      </trkpt>
      <trkpt lat="48.05126" lon="7.27078">
        <ele>554</ele>
        <time>2021-04-26T14:35:40Z</time>
      </trkpt>
      <trkpt lat="48.05133" lon="7.27037">
        <ele>563</ele>
        <time>2021-04-26T14:35:45Z</time>
      </trkpt>
      <trkpt lat="48.05135" lon="7.27012">
        <ele>568</ele>
        <time>2021-04-26T14:35:50Z</time>
      </trkpt>
      <trkpt lat="48.05138" lon="7.26986">
        <ele>574</ele>
        <time>2021-04-26T14:35:55Z</time>
      </trkpt>
      <trkpt lat="48.05129" lon="7.27">
        <ele>573</ele>
        <time>2021-04-26T14:36:00Z</time>
      </trkpt>
      <trkpt lat="48.05117" lon="7.27019">
        <ele>571</ele>
        <time>2021-04-26T14:36:05Z</time>
      </trkpt>
      <trkpt lat="48.05106" lon="7.27038">
        <ele>569</ele>
        <time>2021-04-26T14:36:10Z</time>
      </trkpt>
      <trkpt lat="48.05089" lon="7.27062">
        <ele>568</ele>
        <time>2021-04-26T14:36:15Z</time>
      </trkpt>
      <trkpt lat="48.05074" lon="7.27087">
        <ele>565</ele>
        <time>2021-04-26T14:36:20Z</time>
      </trkpt>
      <trkpt lat="48.05051" lon="7.27099">
        <ele>564</ele>
        <time>2021-04-26T14:36:25Z</time>
      </trkpt>
      <trkpt lat="48.0503" lon="7.2711">
        <ele>564</ele>
        <time>2021-04-26T14:36:30Z</time>
      </trkpt>
      <trkpt lat="48.05011" lon="7.27101">
        <ele>568</ele>
        <time>2021-04-26T14:36:35Z</time>
      </trkpt>
      <trkpt lat="48.04996" lon="7.2708">
        <ele>573</ele>
        <time>2021-04-26T14:36:40Z</time>
      </trkpt>
      <trkpt lat="48.04986" lon="7.27054">
        <ele>577</ele>
        <time>2021-04-26T14:36:45Z</time>
      </trkpt>
      <trkpt lat="48.04978" lon="7.27028">
        <ele>580</ele>
        <time>2021-04-26T14:36:50Z</time>
      </trkpt>
      <trkpt lat="48.04965" lon="7.26999">
        <ele>584</ele>
        <time>2021-04-26T14:36:55Z</time>
      </trkpt>
      <trkpt lat="48.0495" lon="7.2697">
        <ele>585</ele>
        <time>2021-04-26T14:37:00Z</time>
      </trkpt>
      <trkpt lat="48.04935" lon="7.26942">
        <ele>587</ele>
        <time>2021-04-26T14:37:05Z</time>
      </trkpt>
      <trkpt lat="48.0492" lon="7.26919">
        <ele>586</ele>
        <time>2021-04-26T14:37:10Z</time>
      </trkpt>
      <trkpt lat="48.04899" lon="7.26892">
        <ele>582</ele>
        <time>2021-04-26T14:37:15Z</time>
      </trkpt>
      <trkpt lat="48.04896" lon="7.26852">
        <ele>585</ele>
        <time>2021-04-26T14:37:20Z</time>
      </trkpt>
      <trkpt lat="48.04897" lon="7.26816">
        <ele>588</ele>
        <time>2021-04-26T14:37:25Z</time>
      </trkpt>
      <trkpt lat="48.04898" lon="7.26775">
        <ele>590</ele>
        <time>2021-04-26T14:37:30Z</time>
      </trkpt>
      <trkpt lat="48.04903" lon="7.2674">
        <ele>592</ele>
        <time>2021-04-26T14:37:35Z</time>
      </trkpt>
      <trkpt lat="48.04905" lon="7.26707">
        <ele>591</ele>
        <time>2021-04-26T14:37:40Z</time>
      </trkpt>
      <trkpt lat="48.04912" lon="7.26688">
        <ele>592</ele>
        <time>2021-04-26T14:37:45Z</time>
      </trkpt>
      <trkpt lat="48.04921" lon="7.26673">
        <ele>593</ele>
        <time>2021-04-26T14:37:50Z</time>
      </trkpt>
      <trkpt lat="48.04932" lon="7.26664">
        <ele>595</ele>
        <time>2021-04-26T14:37:55Z</time>
      </trkpt>
      <trkpt lat="48.04941" lon="7.26648">
        <ele>596</ele>
        <time>2021-04-26T14:38:00Z</time>
      </trkpt>
      <trkpt lat="48.04949" lon="7.26613">
        <ele>597</ele>
        <time>2021-04-26T14:38:05Z</time>
      </trkpt>
      <trkpt lat="48.04956" lon="7.26579">
        <ele>597</ele>
        <time>2021-04-26T14:38:10Z</time>
      </trkpt>
      <trkpt lat="48.04964" lon="7.26549">
        <ele>598</ele>
        <time>2021-04-26T14:38:15Z</time>
      </trkpt>
      <trkpt lat="48.04969" lon="7.2652">
        <ele>598</ele>
        <time>2021-04-26T14:38:20Z</time>
      </trkpt>
      <trkpt lat="48.04967" lon="7.26489">
        <ele>599</ele>
        <time>2021-04-26T14:38:25Z</time>
      </trkpt>
      <trkpt lat="48.04953" lon="7.26476">
        <ele>598</ele>
        <time>2021-04-26T14:38:30Z</time>
      </trkpt>
      <trkpt lat="48.0494" lon="7.26475">
        <ele>597</ele>
        <time>2021-04-26T14:38:35Z</time>
      </trkpt>
      <trkpt lat="48.04928" lon="7.26464">
        <ele>597</ele>
        <time>2021-04-26T14:38:40Z</time>
      </trkpt>
      <trkpt lat="48.04915" lon="7.26442">
        <ele>598</ele>
        <time>2021-04-26T14:38:45Z</time>
      </trkpt>
      <trkpt lat="48.04894" lon="7.26419">
        <ele>599</ele>
        <time>2021-04-26T14:38:50Z</time>
      </trkpt>
      <trkpt lat="48.04875" lon="7.26397">
        <ele>599</ele>
        <time>2021-04-26T14:38:55Z</time>
      </trkpt>
      <trkpt lat="48.04855" lon="7.26376">
        <ele>599</ele>
        <time>2021-04-26T14:39:00Z</time>
      </trkpt>
      <trkpt lat="48.04839" lon="7.26348">
        <ele>599</ele>
        <time>2021-04-26T14:39:05Z</time>
      </trkpt>
      <trkpt lat="48.04824" lon="7.26326">
        <ele>600</ele>
        <time>2021-04-26T14:39:10Z</time>
      </trkpt>
      <trkpt lat="48.04806" lon="7.26311">
        <ele>599</ele>
        <time>2021-04-26T14:39:15Z</time>
      </trkpt>
      <trkpt lat="48.04785" lon="7.26292">
        <ele>600</ele>
        <time>2021-04-26T14:39:20Z</time>
      </trkpt>
      <trkpt lat="48.04765" lon="7.26278">
        <ele>600</ele>
        <time>2021-04-26T14:39:25Z</time>
      </trkpt>
      <trkpt lat="48.04752" lon="7.26278">
        <ele>599</ele>
        <time>2021-04-26T14:39:30Z</time>
      </trkpt>
      <trkpt lat="48.04736" lon="7.2627">
        <ele>596</ele>
        <time>2021-04-26T14:39:35Z</time>
      </trkpt>
      <trkpt lat="48.04715" lon="7.26251">
        <ele>594</ele>
        <time>2021-04-26T14:39:40Z</time>
      </trkpt>
      <trkpt lat="48.04692" lon="7.26234">
        <ele>593</ele>
        <time>2021-04-26T14:39:45Z</time>
      </trkpt>
      <trkpt lat="48.04673" lon="7.26218">
        <ele>592</ele>
        <time>2021-04-26T14:39:50Z</time>
      </trkpt>
      <trkpt lat="48.04654" lon="7.262">
        <ele>591</ele>
        <time>2021-04-26T14:39:55Z</time>
      </trkpt>
      <trkpt lat="48.04634" lon="7.26179">
        <ele>591</ele>
        <time>2021-04-26T14:40:00Z</time>
      </trkpt>
      <trkpt lat="48.04618" lon="7.26157">
        <ele>591</ele>
        <time>2021-04-26T14:40:05Z</time>
      </trkpt>
      <trkpt lat="48.04599" lon="7.26131">
        <ele>592</ele>
        <time>2021-04-26T14:40:10Z</time>
      </trkpt>
      <trkpt lat="48.04583" lon="7.26113">
        <ele>593</ele>
        <time>2021-04-26T14:40:15Z</time>
      </trkpt>
      <trkpt lat="48.04563" lon="7.26112">
        <ele>589</ele>
        <time>2021-04-26T14:40:20Z</time>
      </trkpt>
      <trkpt lat="48.04541" lon="7.26116">
        <ele>583</ele>
        <time>2021-04-26T14:40:25Z</time>
      </trkpt>
      <trkpt lat="48.04514" lon="7.26105">
        <ele>582</ele>
        <time>2021-04-26T14:40:30Z</time>
      </trkpt>
      <trkpt lat="48.04504" lon="7.26098">
        <ele>582</ele>
        <time>2021-04-26T14:40:35Z</time>
      </trkpt>
      <trkpt lat="48.04491" lon="7.26094">
        <ele>580</ele>
        <time>2021-04-26T14:40:40Z</time>
      </trkpt>
      <trkpt lat="48.04471" lon="7.26096">
        <ele>574</ele>
        <time>2021-04-26T14:40:45Z</time>
      </trkpt>
      <trkpt lat="48.04446" lon="7.26091">
        <ele>569</ele>
        <time>2021-04-26T14:40:50Z</time>
      </trkpt>
      <trkpt lat="48.04426" lon="7.26073">
        <ele>569</ele>
        <time>2021-04-26T14:40:55Z</time>
      </trkpt>
      <trkpt lat="48.04407" lon="7.26054">
        <ele>570</ele>
        <time>2021-04-26T14:41:00Z</time>
      </trkpt>
      <trkpt lat="48.04387" lon="7.26035">
        <ele>572</ele>
        <time>2021-04-26T14:41:05Z</time>
      </trkpt>
      <trkpt lat="48.04366" lon="7.26017">
        <ele>572</ele>
        <time>2021-04-26T14:41:10Z</time>
      </trkpt>
      <trkpt lat="48.04345" lon="7.26">
        <ele>572</ele>
        <time>2021-04-26T14:41:15Z</time>
      </trkpt>
      <trkpt lat="48.04326" lon="7.25982">
        <ele>575</ele>
        <time>2021-04-26T14:41:20Z</time>
      </trkpt>
      <trkpt lat="48.04306" lon="7.25972">
        <ele>577</ele>
        <time>2021-04-26T14:41:25Z</time>
      </trkpt>
      <trkpt lat="48.04281" lon="7.25969">
        <ele>577</ele>
        <time>2021-04-26T14:41:30Z</time>
      </trkpt>
      <trkpt lat="48.04263" lon="7.2598">
        <ele>575</ele>
        <time>2021-04-26T14:41:35Z</time>
      </trkpt>
      <trkpt lat="48.04255" lon="7.25996">
        <ele>572</ele>
        <time>2021-04-26T14:41:40Z</time>
      </trkpt>
      <trkpt lat="48.04252" lon="7.2601">
        <ele>571</ele>
        <time>2021-04-26T14:41:45Z</time>
      </trkpt>
      <trkpt lat="48.04254" lon="7.26046">
        <ele>570</ele>
        <time>2021-04-26T14:41:50Z</time>
      </trkpt>
      <trkpt lat="48.04263" lon="7.26079">
        <ele>568</ele>
        <time>2021-04-26T14:41:55Z</time>
      </trkpt>
      <trkpt lat="48.04264" lon="7.26113">
        <ele>566</ele>
        <time>2021-04-26T14:42:00Z</time>
      </trkpt>
      <trkpt lat="48.04269" lon="7.26147">
        <ele>563</ele>
        <time>2021-04-26T14:42:05Z</time>
      </trkpt>
      <trkpt lat="48.04273" lon="7.26182">
        <ele>561</ele>
        <time>2021-04-26T14:42:10Z</time>
      </trkpt>
      <trkpt lat="48.04279" lon="7.26216">
        <ele>559</ele>
        <time>2021-04-26T14:42:15Z</time>
      </trkpt>
      <trkpt lat="48.04284" lon="7.26253">
        <ele>558</ele>
        <time>2021-04-26T14:42:20Z</time>
      </trkpt>
      <trkpt lat="48.04292" lon="7.26289">
        <ele>553</ele>
        <time>2021-04-26T14:42:25Z</time>
      </trkpt>
      <trkpt lat="48.04299" lon="7.2632">
        <ele>550</ele>
        <time>2021-04-26T14:42:30Z</time>
      </trkpt>
      <trkpt lat="48.04307" lon="7.26353">
        <ele>546</ele>
        <time>2021-04-26T14:42:35Z</time>
      </trkpt>
      <trkpt lat="48.04309" lon="7.26383">
        <ele>544</ele>
        <time>2021-04-26T14:42:40Z</time>
      </trkpt>
      <trkpt lat="48.04301" lon="7.26423">
        <ele>545</ele>
        <time>2021-04-26T14:42:45Z</time>
      </trkpt>
      <trkpt lat="48.04287" lon="7.26456">
        <ele>547</ele>
        <time>2021-04-26T14:42:50Z</time>
      </trkpt>
      <trkpt lat="48.04272" lon="7.26485">
        <ele>549</ele>
        <time>2021-04-26T14:42:55Z</time>
      </trkpt>
      <trkpt lat="48.04263" lon="7.26515">
        <ele>547</ele>
        <time>2021-04-26T14:43:00Z</time>
      </trkpt>
      <trkpt lat="48.04237" lon="7.26526">
        <ele>554</ele>
        <time>2021-04-26T14:43:05Z</time>
      </trkpt>
      <trkpt lat="48.04227" lon="7.26536">
        <ele>555</ele>
        <time>2021-04-26T14:43:10Z</time>
      </trkpt>
      <trkpt lat="48.04219" lon="7.26553">
        <ele>555</ele>
        <time>2021-04-26T14:43:15Z</time>
      </trkpt>
      <trkpt lat="48.04203" lon="7.26586">
        <ele>555</ele>
        <time>2021-04-26T14:43:20Z</time>
      </trkpt>
      <trkpt lat="48.0419" lon="7.26613">
        <ele>555</ele>
        <time>2021-04-26T14:43:25Z</time>
      </trkpt>
      <trkpt lat="48.04175" lon="7.26638">
        <ele>558</ele>
        <time>2021-04-26T14:43:30Z</time>
      </trkpt>
      <trkpt lat="48.04162" lon="7.26661">
        <ele>560</ele>
        <time>2021-04-26T14:43:35Z</time>
      </trkpt>
      <trkpt lat="48.04154" lon="7.26695">
        <ele>560</ele>
        <time>2021-04-26T14:43:40Z</time>
      </trkpt>
      <trkpt lat="48.04149" lon="7.26735">
        <ele>559</ele>
        <time>2021-04-26T14:43:45Z</time>
      </trkpt>
      <trkpt lat="48.04138" lon="7.2677">
        <ele>560</ele>
        <time>2021-04-26T14:43:50Z</time>
      </trkpt>
      <trkpt lat="48.04133" lon="7.2681">
        <ele>558</ele>
        <time>2021-04-26T14:43:55Z</time>
      </trkpt>
      <trkpt lat="48.04126" lon="7.26846">
        <ele>556</ele>
        <time>2021-04-26T14:44:00Z</time>
      </trkpt>
      <trkpt lat="48.04117" lon="7.26882">
        <ele>554</ele>
        <time>2021-04-26T14:44:05Z</time>
      </trkpt>
      <trkpt lat="48.04113" lon="7.26917">
        <ele>551</ele>
        <time>2021-04-26T14:44:10Z</time>
      </trkpt>
      <trkpt lat="48.0411" lon="7.26952">
        <ele>548</ele>
        <time>2021-04-26T14:44:15Z</time>
      </trkpt>
      <trkpt lat="48.041" lon="7.26985">
        <ele>547</ele>
        <time>2021-04-26T14:44:20Z</time>
      </trkpt>
      <trkpt lat="48.04089" lon="7.27017">
        <ele>547</ele>
        <time>2021-04-26T14:44:25Z</time>
      </trkpt>
      <trkpt lat="48.04074" lon="7.27043">
        <ele>547</ele>
        <time>2021-04-26T14:44:30Z</time>
      </trkpt>
      <trkpt lat="48.04048" lon="7.27046">
        <ele>550</ele>
        <time>2021-04-26T14:44:35Z</time>
      </trkpt>
      <trkpt lat="48.04038" lon="7.27037">
        <ele>551</ele>
        <time>2021-04-26T14:44:40Z</time>
      </trkpt>
      <trkpt lat="48.04025" lon="7.27041">
        <ele>552</ele>
        <time>2021-04-26T14:44:45Z</time>
      </trkpt>
      <trkpt lat="48.04002" lon="7.27045">
        <ele>554</ele>
        <time>2021-04-26T14:44:50Z</time>
      </trkpt>
      <trkpt lat="48.03979" lon="7.27044">
        <ele>553</ele>
        <time>2021-04-26T14:44:55Z</time>
      </trkpt>
      <trkpt lat="48.03962" lon="7.27051">
        <ele>553</ele>
        <time>2021-04-26T14:45:00Z</time>
      </trkpt>
      <trkpt lat="48.03955" lon="7.27104">
        <ele>555</ele>
        <time>2021-04-26T14:45:05Z</time>
      </trkpt>
      <trkpt lat="48.03951" lon="7.27128">
        <ele>558</ele>
        <time>2021-04-26T14:45:10Z</time>
      </trkpt>
      <trkpt lat="48.0394" lon="7.27142">
        <ele>560</ele>
        <time>2021-04-26T14:45:15Z</time>
      </trkpt>
      <trkpt lat="48.03957" lon="7.27179">
        <ele>564</ele>
        <time>2021-04-26T14:45:20Z</time>
      </trkpt>
      <trkpt lat="48.03959" lon="7.27214">
        <ele>568</ele>
        <time>2021-04-26T14:45:25Z</time>
      </trkpt>
      <trkpt lat="48.03959" lon="7.27248">
        <ele>572</ele>
        <time>2021-04-26T14:45:30Z</time>
      </trkpt>
      <trkpt lat="48.03952" lon="7.27283">
        <ele>573</ele>
        <time>2021-04-26T14:45:35Z</time>
      </trkpt>
      <trkpt lat="48.03953" lon="7.27317">
        <ele>572</ele>
        <time>2021-04-26T14:45:40Z</time>
      </trkpt>
      <trkpt lat="48.03932" lon="7.27336">
        <ele>576</ele>
        <time>2021-04-26T14:45:45Z</time>
      </trkpt>
      <trkpt lat="48.03908" lon="7.27337">
        <ele>579</ele>
        <time>2021-04-26T14:45:50Z</time>
      </trkpt>
      <trkpt lat="48.03881" lon="7.27328">
        <ele>576</ele>
        <time>2021-04-26T14:45:55Z</time>
      </trkpt>
      <trkpt lat="48.03901" lon="7.27315">
        <ele>579</ele>
        <time>2021-04-26T14:46:00Z</time>
      </trkpt>
      <trkpt lat="48.03927" lon="7.27301">
        <ele>578</ele>
        <time>2021-04-26T14:46:05Z</time>
      </trkpt>
      <trkpt lat="48.03894" lon="7.27302">
        <ele>577</ele>
        <time>2021-04-26T14:46:10Z</time>
      </trkpt>
      <trkpt lat="48.0388" lon="7.27306">
        <ele>575</ele>
        <time>2021-04-26T14:46:15Z</time>
      </trkpt>
      <trkpt lat="48.03863" lon="7.27323">
        <ele>574</ele>
        <time>2021-04-26T14:46:20Z</time>
      </trkpt>
      <trkpt lat="48.03854" lon="7.27335">
        <ele>573</ele>
        <time>2021-04-26T14:46:25Z</time>
      </trkpt>
      <trkpt lat="48.03845" lon="7.27353">
        <ele>570</ele>
        <time>2021-04-26T14:46:30Z</time>
      </trkpt>
      <trkpt lat="48.03839" lon="7.27364">
        <ele>568</ele>
        <time>2021-04-26T14:46:35Z</time>
      </trkpt>
      <trkpt lat="48.03826" lon="7.27386">
        <ele>563</ele>
        <time>2021-04-26T14:46:40Z</time>
      </trkpt>
      <trkpt lat="48.03809" lon="7.27399">
        <ele>557</ele>
        <time>2021-04-26T14:46:45Z</time>
      </trkpt>
      <trkpt lat="48.03789" lon="7.27389">
        <ele>552</ele>
        <time>2021-04-26T14:46:50Z</time>
      </trkpt>
      <trkpt lat="48.03788" lon="7.27446">
        <ele>543</ele>
        <time>2021-04-26T14:46:55Z</time>
      </trkpt>
      <trkpt lat="48.03775" lon="7.27413">
        <ele>548</ele>
        <time>2021-04-26T14:47:00Z</time>
      </trkpt>
      <trkpt lat="48.03755" lon="7.27415">
        <ele>543</ele>
        <time>2021-04-26T14:47:05Z</time>
      </trkpt>
      <trkpt lat="48.0375" lon="7.27455">
        <ele>537</ele>
        <time>2021-04-26T14:47:10Z</time>
      </trkpt>
      <trkpt lat="48.03739" lon="7.27391">
        <ele>535</ele>
        <time>2021-04-26T14:47:15Z</time>
      </trkpt>
      <trkpt lat="48.03721" lon="7.27452">
        <ele>527</ele>
        <time>2021-04-26T14:47:20Z</time>
      </trkpt>
      <trkpt lat="48.0371" lon="7.27419">
        <ele>524</ele>
        <time>2021-04-26T14:47:25Z</time>
      </trkpt>
      <trkpt lat="48.03693" lon="7.27399">
        <ele>515</ele>
        <time>2021-04-26T14:47:30Z</time>
      </trkpt>
      <trkpt lat="48.03684" lon="7.27434">
        <ele>513</ele>
        <time>2021-04-26T14:47:35Z</time>
      </trkpt>
      <trkpt lat="48.03683" lon="7.27489">
        <ele>512</ele>
        <time>2021-04-26T14:47:40Z</time>
      </trkpt>
      <trkpt lat="48.03694" lon="7.27541">
        <ele>505</ele>
        <time>2021-04-26T14:47:45Z</time>
      </trkpt>
      <trkpt lat="48.03711" lon="7.27577">
        <ele>498</ele>
        <time>2021-04-26T14:47:50Z</time>
      </trkpt>
      <trkpt lat="48.03736" lon="7.27599">
        <ele>493</ele>
        <time>2021-04-26T14:47:55Z</time>
      </trkpt>
      <trkpt lat="48.03756" lon="7.27608">
        <ele>491</ele>
        <time>2021-04-26T14:48:00Z</time>
      </trkpt>
      <trkpt lat="48.03781" lon="7.27612">
        <ele>489</ele>
        <time>2021-04-26T14:48:05Z</time>
      </trkpt>
      <trkpt lat="48.03803" lon="7.27614">
        <ele>487</ele>
        <time>2021-04-26T14:48:10Z</time>
      </trkpt>
      <trkpt lat="48.03826" lon="7.27617">
        <ele>485</ele>
        <time>2021-04-26T14:48:15Z</time>
      </trkpt>
      <trkpt lat="48.03849" lon="7.2762">
        <ele>484</ele>
        <time>2021-04-26T14:48:20Z</time>
      </trkpt>
      <trkpt lat="48.03877" lon="7.27626">
        <ele>482</ele>
        <time>2021-04-26T14:48:25Z</time>
      </trkpt>
      <trkpt lat="48.039" lon="7.27634">
        <ele>479</ele>
        <time>2021-04-26T14:48:30Z</time>
      </trkpt>
      <trkpt lat="48.03925" lon="7.2765">
        <ele>473</ele>
        <time>2021-04-26T14:48:35Z</time>
      </trkpt>
      <trkpt lat="48.03937" lon="7.27653">
        <ele>470</ele>
        <time>2021-04-26T14:48:40Z</time>
      </trkpt>
      <trkpt lat="48.03958" lon="7.27651">
        <ele>468</ele>
        <time>2021-04-26T14:48:45Z</time>
      </trkpt>
      <trkpt lat="48.03982" lon="7.27645">
        <ele>468</ele>
        <time>2021-04-26T14:48:50Z</time>
      </trkpt>
      <trkpt lat="48.04007" lon="7.27644">
        <ele>465</ele>
        <time>2021-04-26T14:48:55Z</time>
      </trkpt>
      <trkpt lat="48.04029" lon="7.27642">
        <ele>463</ele>
        <time>2021-04-26T14:49:00Z</time>
      </trkpt>
      <trkpt lat="48.0405" lon="7.27636">
        <ele>461</ele>
        <time>2021-04-26T14:49:05Z</time>
      </trkpt>
      <trkpt lat="48.04074" lon="7.27632">
        <ele>459</ele>
        <time>2021-04-26T14:49:10Z</time>
      </trkpt>
      <trkpt lat="48.04097" lon="7.27633">
        <ele>456</ele>
        <time>2021-04-26T14:49:15Z</time>
      </trkpt>
      <trkpt lat="48.04119" lon="7.27637">
        <ele>452</ele>
        <time>2021-04-26T14:49:20Z</time>
      </trkpt>
      <trkpt lat="48.04141" lon="7.27641">
        <ele>448</ele>
        <time>2021-04-26T14:49:25Z</time>
      </trkpt>
      <trkpt lat="48.04165" lon="7.27644">
        <ele>444</ele>
        <time>2021-04-26T14:49:30Z</time>
      </trkpt>
      <trkpt lat="48.04191" lon="7.27647">
        <ele>439</ele>
        <time>2021-04-26T14:49:35Z</time>
      </trkpt>
      <trkpt lat="48.04178" lon="7.27688">
        <ele>428</ele>
        <time>2021-04-26T14:49:40Z</time>
      </trkpt>
      <trkpt lat="48.04136" lon="7.27709">
        <ele>427</ele>
        <time>2021-04-26T14:49:45Z</time>
      </trkpt>
      <trkpt lat="48.04107" lon="7.27728">
        <ele>423</ele>
        <time>2021-04-26T14:49:50Z</time>
      </trkpt>
      <trkpt lat="48.04093" lon="7.27751">
        <ele>417</ele>
        <time>2021-04-26T14:49:55Z</time>
      </trkpt>
      <trkpt lat="48.0416" lon="7.27737">
        <ele>416</ele>
        <time>2021-04-26T14:50:00Z</time>
      </trkpt>
      <trkpt lat="48.04192" lon="7.2774">
        <ele>411</ele>
        <time>2021-04-26T14:50:05Z</time>
      </trkpt>
      <trkpt lat="48.04226" lon="7.27728">
        <ele>411</ele>
        <time>2021-04-26T14:50:10Z</time>
      </trkpt>
      <trkpt lat="48.04248" lon="7.27704">
        <ele>415</ele>
        <time>2021-04-26T14:50:15Z</time>
      </trkpt>
      <trkpt lat="48.04268" lon="7.27677">
        <ele>419</ele>
        <time>2021-04-26T14:50:20Z</time>
      </trkpt>
      <trkpt lat="48.04287" lon="7.27653">
        <ele>422</ele>
        <time>2021-04-26T14:50:25Z</time>
      </trkpt>
      <trkpt lat="48.04305" lon="7.27628">
        <ele>424</ele>
        <time>2021-04-26T14:50:30Z</time>
      </trkpt>
      <trkpt lat="48.04321" lon="7.27638">
        <ele>418</ele>
        <time>2021-04-26T14:50:35Z</time>
      </trkpt>
      <trkpt lat="48.04342" lon="7.27635">
        <ele>413</ele>
        <time>2021-04-26T14:50:40Z</time>
      </trkpt>
      <trkpt lat="48.04351" lon="7.27621">
        <ele>412</ele>
        <time>2021-04-26T14:50:45Z</time>
      </trkpt>
      <trkpt lat="48.04365" lon="7.27592">
        <ele>413</ele>
        <time>2021-04-26T14:50:50Z</time>
      </trkpt>
      <trkpt lat="48.04375" lon="7.27565">
        <ele>412</ele>
        <time>2021-04-26T14:50:55Z</time>
      </trkpt>
      <trkpt lat="48.04388" lon="7.27528">
        <ele>409</ele>
        <time>2021-04-26T14:51:00Z</time>
      </trkpt>
      <trkpt lat="48.04398" lon="7.27494">
        <ele>407</ele>
        <time>2021-04-26T14:51:05Z</time>
      </trkpt>
      <trkpt lat="48.04411" lon="7.27462">
        <ele>402</ele>
        <time>2021-04-26T14:51:10Z</time>
      </trkpt>
      <trkpt lat="48.04425" lon="7.27431">
        <ele>400</ele>
        <time>2021-04-26T14:51:15Z</time>
      </trkpt>
      <trkpt lat="48.04438" lon="7.27405">
        <ele>398</ele>
        <time>2021-04-26T14:51:20Z</time>
      </trkpt>
      <trkpt lat="48.04452" lon="7.27388">
        <ele>396</ele>
        <time>2021-04-26T14:51:25Z</time>
      </trkpt>
      <trkpt lat="48.04454" lon="7.27409">
        <ele>394</ele>
        <time>2021-04-26T14:51:30Z</time>
      </trkpt>
      <trkpt lat="48.04456" lon="7.27441">
        <ele>392</ele>
        <time>2021-04-26T14:51:35Z</time>
      </trkpt>
      <trkpt lat="48.04454" lon="7.27465">
        <ele>391</ele>
        <time>2021-04-26T14:51:40Z</time>
      </trkpt>
      <trkpt lat="48.04453" lon="7.2749">
        <ele>389</ele>
        <time>2021-04-26T14:51:45Z</time>
      </trkpt>
      <trkpt lat="48.04452" lon="7.27514">
        <ele>388</ele>
        <time>2021-04-26T14:51:50Z</time>
      </trkpt>
      <trkpt lat="48.04449" lon="7.2753">
        <ele>387</ele>
        <time>2021-04-26T14:51:55Z</time>
      </trkpt>
      <trkpt lat="48.04447" lon="7.27558">
        <ele>386</ele>
        <time>2021-04-26T14:52:00Z</time>
      </trkpt>
      <trkpt lat="48.04445" lon="7.27587">
        <ele>384</ele>
        <time>2021-04-26T14:52:05Z</time>
      </trkpt>
      <trkpt lat="48.04445" lon="7.27614">
        <ele>380</ele>
        <time>2021-04-26T14:52:10Z</time>
      </trkpt>
      <trkpt lat="48.0444" lon="7.27646">
        <ele>377</ele>
        <time>2021-04-26T14:52:15Z</time>
      </trkpt>
      <trkpt lat="48.04436" lon="7.27673">
        <ele>374</ele>
        <time>2021-04-26T14:52:20Z</time>
      </trkpt>
      <trkpt lat="48.04431" lon="7.27703">
        <ele>372</ele>
        <time>2021-04-26T14:52:25Z</time>
      </trkpt>
      <trkpt lat="48.04426" lon="7.27734">
        <ele>370</ele>
        <time>2021-04-26T14:52:30Z</time>
      </trkpt>
      <trkpt lat="48.04419" lon="7.27756">
        <ele>369</ele>
        <time>2021-04-26T14:52:35Z</time>
      </trkpt>
      <trkpt lat="48.04415" lon="7.27778">
        <ele>366</ele>
        <time>2021-04-26T14:52:40Z</time>
      </trkpt>
      <trkpt lat="48.044" lon="7.27804">
        <ele>366</ele>
        <time>2021-04-26T14:52:45Z</time>
      </trkpt>
      <trkpt lat="48.04389" lon="7.27829">
        <ele>364</ele>
        <time>2021-04-26T14:52:50Z</time>
      </trkpt>
      <trkpt lat="48.04369" lon="7.2785">
        <ele>364</ele>
        <time>2021-04-26T14:52:55Z</time>
      </trkpt>
      <trkpt lat="48.04347" lon="7.27875">
        <ele>365</ele>
        <time>2021-04-26T14:53:00Z</time>
      </trkpt>
      <trkpt lat="48.04337" lon="7.27895">
        <ele>364</ele>
        <time>2021-04-26T14:53:05Z</time>
      </trkpt>
      <trkpt lat="48.04339" lon="7.2792">
        <ele>360</ele>
        <time>2021-04-26T14:53:10Z</time>
      </trkpt>
      <trkpt lat="48.04343" lon="7.27942">
        <ele>358</ele>
        <time>2021-04-26T14:53:15Z</time>
      </trkpt>
      <trkpt lat="48.04349" lon="7.27954">
        <ele>356</ele>
        <time>2021-04-26T14:53:20Z</time>
      </trkpt>
      <trkpt lat="48.04354" lon="7.27989">
        <ele>352</ele>
        <time>2021-04-26T14:53:25Z</time>
      </trkpt>
      <trkpt lat="48.04363" lon="7.2802">
        <ele>350</ele>
        <time>2021-04-26T14:53:30Z</time>
      </trkpt>
      <trkpt lat="48.04367" lon="7.28053">
        <ele>348</ele>
        <time>2021-04-26T14:53:35Z</time>
      </trkpt>
      <trkpt lat="48.0437" lon="7.28083">
        <ele>347</ele>
        <time>2021-04-26T14:53:40Z</time>
      </trkpt>
      <trkpt lat="48.04371" lon="7.28113">
        <ele>345</ele>
        <time>2021-04-26T14:53:45Z</time>
      </trkpt>
      <trkpt lat="48.04369" lon="7.28144">
        <ele>343</ele>
        <time>2021-04-26T14:53:50Z</time>
      </trkpt>
      <trkpt lat="48.04368" lon="7.28179">
        <ele>341</ele>
        <time>2021-04-26T14:53:55Z</time>
      </trkpt>
      <trkpt lat="48.04364" lon="7.28217">
        <ele>339</ele>
        <time>2021-04-26T14:54:00Z</time>
      </trkpt>
      <trkpt lat="48.04367" lon="7.28253">
        <ele>336</ele>
        <time>2021-04-26T14:54:05Z</time>
      </trkpt>
      <trkpt lat="48.04368" lon="7.28286">
        <ele>333</ele>
        <time>2021-04-26T14:54:10Z</time>
      </trkpt>
      <trkpt lat="48.04367" lon="7.28319">
        <ele>330</ele>
        <time>2021-04-26T14:54:15Z</time>
      </trkpt>
      <trkpt lat="48.04366" lon="7.28352">
        <ele>328</ele>
        <time>2021-04-26T14:54:20Z</time>
      </trkpt>
      <trkpt lat="48.04364" lon="7.28385">
        <ele>326</ele>
        <time>2021-04-26T14:54:25Z</time>
      </trkpt>
      <trkpt lat="48.04362" lon="7.28419">
        <ele>323</ele>
        <time>2021-04-26T14:54:30Z</time>
      </trkpt>
      <trkpt lat="48.0436" lon="7.28458">
        <ele>320</ele>
        <time>2021-04-26T14:54:35Z</time>
      </trkpt>
      <trkpt lat="48.04362" lon="7.28495">
        <ele>317</ele>
        <time>2021-04-26T14:54:40Z</time>
      </trkpt>
      <trkpt lat="48.04364" lon="7.28533">
        <ele>314</ele>
        <time>2021-04-26T14:54:45Z</time>
      </trkpt>
      <trkpt lat="48.04367" lon="7.28567">
        <ele>311</ele>
        <time>2021-04-26T14:54:50Z</time>
      </trkpt>
      <trkpt lat="48.04365" lon="7.28599">
        <ele>309</ele>
        <time>2021-04-26T14:54:55Z</time>
      </trkpt>
      <trkpt lat="48.04357" lon="7.28633">
        <ele>309</ele>
        <time>2021-04-26T14:55:00Z</time>
      </trkpt>
      <trkpt lat="48.0435" lon="7.28663">
        <ele>308</ele>
        <time>2021-04-26T14:55:05Z</time>
      </trkpt>
      <trkpt lat="48.04344" lon="7.28692">
        <ele>307</ele>
        <time>2021-04-26T14:55:10Z</time>
      </trkpt>
      <trkpt lat="48.04344" lon="7.28722">
        <ele>305</ele>
        <time>2021-04-26T14:55:15Z</time>
      </trkpt>
      <trkpt lat="48.04351" lon="7.28751">
        <ele>302</ele>
        <time>2021-04-26T14:55:20Z</time>
      </trkpt>
      <trkpt lat="48.04354" lon="7.28774">
        <ele>300</ele>
        <time>2021-04-26T14:55:25Z</time>
      </trkpt>
      <trkpt lat="48.04354" lon="7.28808">
        <ele>296</ele>
        <time>2021-04-26T14:55:30Z</time>
      </trkpt>
      <trkpt lat="48.04354" lon="7.28842">
        <ele>293</ele>
        <time>2021-04-26T14:55:35Z</time>
      </trkpt>
      <trkpt lat="48.04362" lon="7.28876">
        <ele>290</ele>
        <time>2021-04-26T14:55:40Z</time>
      </trkpt>
      <trkpt lat="48.04371" lon="7.28909">
        <ele>287</ele>
        <time>2021-04-26T14:55:45Z</time>
      </trkpt>
      <trkpt lat="48.04376" lon="7.2894">
        <ele>284</ele>
        <time>2021-04-26T14:55:50Z</time>
      </trkpt>
      <trkpt lat="48.04378" lon="7.28973">
        <ele>282</ele>
        <time>2021-04-26T14:55:55Z</time>
      </trkpt>
      <trkpt lat="48.04374" lon="7.29009">
        <ele>279</ele>
        <time>2021-04-26T14:56:00Z</time>
      </trkpt>
      <trkpt lat="48.0437" lon="7.29044">
        <ele>277</ele>
        <time>2021-04-26T14:56:05Z</time>
      </trkpt>
      <trkpt lat="48.04373" lon="7.29078">
        <ele>275</ele>
        <time>2021-04-26T14:56:10Z</time>
      </trkpt>
      <trkpt lat="48.04383" lon="7.29114">
        <ele>271</ele>
        <time>2021-04-26T14:56:15Z</time>
      </trkpt>
      <trkpt lat="48.04398" lon="7.29141">
        <ele>267</ele>
        <time>2021-04-26T14:56:20Z</time>
      </trkpt>
      <trkpt lat="48.04415" lon="7.29169">
        <ele>264</ele>
        <time>2021-04-26T14:56:25Z</time>
      </trkpt>
      <trkpt lat="48.04427" lon="7.29191">
        <ele>261</ele>
        <time>2021-04-26T14:56:30Z</time>
      </trkpt>
      <trkpt lat="48.04437" lon="7.29221">
        <ele>259</ele>
        <time>2021-04-26T14:56:35Z</time>
      </trkpt>
      <trkpt lat="48.04442" lon="7.29256">
        <ele>256</ele>
        <time>2021-04-26T14:56:40Z</time>
      </trkpt>
      <trkpt lat="48.04444" lon="7.29288">
        <ele>254</ele>
        <time>2021-04-26T14:56:45Z</time>
      </trkpt>
      <trkpt lat="48.04448" lon="7.29322">
        <ele>251</ele>
        <time>2021-04-26T14:56:50Z</time>
      </trkpt>
      <trkpt lat="48.04449" lon="7.2936">
        <ele>250</ele>
        <time>2021-04-26T14:56:55Z</time>
      </trkpt>
      <trkpt lat="48.04448" lon="7.29395">
        <ele>248</ele>
        <time>2021-04-26T14:57:00Z</time>
      </trkpt>
      <trkpt lat="48.04447" lon="7.2943">
        <ele>247</ele>
        <time>2021-04-26T14:57:05Z</time>
      </trkpt>
      <trkpt lat="48.04446" lon="7.29464">
        <ele>245</ele>
        <time>2021-04-26T14:57:10Z</time>
      </trkpt>
      <trkpt lat="48.04437" lon="7.29535">
        <ele>242</ele>
        <time>2021-04-26T14:57:20Z</time>
      </trkpt>
      <trkpt lat="48.04426" lon="7.29602">
        <ele>239</ele>
        <time>2021-04-26T14:57:30Z</time>
      </trkpt>
      <trkpt lat="48.0442" lon="7.29637">
        <ele>237</ele>
        <time>2021-04-26T14:57:35Z</time>
      </trkpt>
      <trkpt lat="48.04418" lon="7.29705">
        <ele>235</ele>
        <time>2021-04-26T14:57:45Z</time>
      </trkpt>
      <trkpt lat="48.04426" lon="7.29742">
        <ele>235</ele>
        <time>2021-04-26T14:57:50Z</time>
      </trkpt>
      <trkpt lat="48.04431" lon="7.2977">
        <ele>235</ele>
        <time>2021-04-26T14:57:55Z</time>
      </trkpt>
      <trkpt lat="48.04423" lon="7.29804">
        <ele>233</ele>
        <time>2021-04-26T14:58:00Z</time>
      </trkpt>
      <trkpt lat="48.04418" lon="7.29837">
        <ele>232</ele>
        <time>2021-04-26T14:58:05Z</time>
      </trkpt>
      <trkpt lat="48.04422" lon="7.29877">
        <ele>230</ele>
        <time>2021-04-26T14:58:10Z</time>
      </trkpt>
      <trkpt lat="48.04429" lon="7.29907">
        <ele>230</ele>
        <time>2021-04-26T14:58:15Z</time>
      </trkpt>
      <trkpt lat="48.04445" lon="7.29936">
        <ele>229</ele>
        <time>2021-04-26T14:58:20Z</time>
      </trkpt>
      <trkpt lat="48.04447" lon="7.29952">
        <ele>228</ele>
        <time>2021-04-26T14:58:25Z</time>
      </trkpt>
      <trkpt lat="48.04435" lon="7.30043">
        <ele>223</ele>
        <time>2021-04-26T14:58:35Z</time>
      </trkpt>
      <trkpt lat="48.04428" lon="7.30073">
        <ele>222</ele>
        <time>2021-04-26T14:58:40Z</time>
      </trkpt>
      <trkpt lat="48.04417" lon="7.30142">
        <ele>218</ele>
        <time>2021-04-26T14:58:50Z</time>
      </trkpt>
      <trkpt lat="48.04405" lon="7.30206">
        <ele>216</ele>
        <time>2021-04-26T14:59:00Z</time>
      </trkpt>
      <trkpt lat="48.04394" lon="7.30259">
        <ele>215</ele>
        <time>2021-04-26T14:59:10Z</time>
      </trkpt>
      <trkpt lat="48.04364" lon="7.30336">
        <ele>212</ele>
        <time>2021-04-26T14:59:20Z</time>
      </trkpt>
      <trkpt lat="48.04356" lon="7.30368">
        <ele>212</ele>
        <time>2021-04-26T14:59:25Z</time>
      </trkpt>
      <trkpt lat="48.04343" lon="7.30428">
        <ele>211</ele>
        <time>2021-04-26T14:59:35Z</time>
      </trkpt>
    </trkseg>
  </trk>
</gpx>